This is the latest recevied weather packets stored in our database for station/object K7D3. If no packets are shown the sender has not sent any weather packets the latest 10 day(s).
| Time | Temp. | Humidity | Pressure | Rain* | Wind** | Luminosity | Snow |
|---|---|---|---|---|---|---|---|
| 1777752447 | 10° C | 28% | - | 0 mm | 3.58 m/s, 304° | - | - |
| 1777751965 | 10.56° C | 27% | - | 0 mm | 4.92 m/s, 20° | - | - |
| 1777751487 | 10° C | 27% | - | 0 mm | 4.47 m/s, 349° | - | - |
| 1777751008 | 10° C | 28% | - | 0 mm | 4.92 m/s, 312° | - | - |
| 1777750526 | 10° C | 26% | - | 0 mm | 6.26 m/s, 359° | - | - |
| 1777750048 | 10° C | 26% | - | 0 mm | 4.92 m/s, 346° | - | - |
| 1777749569 | 10° C | 30% | - | 0 mm | 3.58 m/s, 276° | - | - |
| 1777749087 | 10.56° C | 29% | - | 0 mm | 3.13 m/s, 316° | - | - |
| 1777748608 | 10° C | 26% | - | 0 mm | 5.36 m/s, 8° | - | - |
| 1777748130 | 10.56° C | 28% | - | 0 mm | 2.24 m/s, 6° | - | - |
| 1777747648 | 10° C | 27% | - | 0 mm | 3.58 m/s, 39° | - | - |
| 1777747169 | 9.44° C | 28% | - | 0 mm | 2.68 m/s, 333° | - | - |
| 1777746690 | 9.44° C | 27% | - | 0 mm | 5.81 m/s, 349° | - | - |
| 1777746208 | 10° C | 29% | - | 0 mm | 3.58 m/s, 352° | - | - |
| 1777745730 | 10° C | 30% | - | 0 mm | 2.24 m/s, 352° | - | - |
| 1777745251 | 9.44° C | 31% | - | 0 mm | 4.02 m/s, 312° | - | - |
| 1777744769 | 8.89° C | 33% | - | 0 mm | 1.34 m/s, 246° | - | - |
| 1777744290 | 9.44° C | 32% | - | 0 mm | 3.13 m/s, 58° | - | - |
| 1777743812 | 8.89° C | 34% | - | 0 mm | 4.47 m/s, 267° | - | - |
| 1777743330 | 8.89° C | 38% | - | 0 mm | 3.13 m/s, 357° | - | - |
| 1777742851 | 8.33° C | 35% | - | 0 mm | 3.58 m/s, 357° | - | - |
| 1777742372 | 8.33° C | 40% | - | 0 mm | 1.79 m/s, 350° | - | - |
| 1777741890 | 8.89° C | 36% | - | 0 mm | 3.13 m/s, 3° | - | - |
| 1777741409 | 8.89° C | 37% | - | 0 mm | 2.68 m/s, 354° | - | - |
| 1777740930 | 8.89° C | 42% | - | 0 mm | 0.89 m/s, 238° | - | - |
* Rain latest hour (hover to see other rain measurements)
** Current wind speed in m/s (hover to see current wind gust speed)